McCall, ID

2:28 PM MDT on August 02, 2015 (GMT -0600)
MesoWest | | Change Station
CLOSE
Current Station
Personal Weather Station
Location: Lake Fork, ID
Elevation: 4890 ft
Nearby Weather Stations
Active Advisory: Fire Weather Advisory Active Notice: Record Report

Elev 4890 ft 44.79 °N, 116.09 °W | Updated 1 hour ago

Clear
Clear
86.0 °F
Feels Like 86.0 °F
N
3.0
Wind Variable Wind from WNW
Gusts 5.0 mph

Today
High -- | Low -- °F
--% Chance of Precip.
Yesterday
High -- | Low -- °F
Precip. -- in
6:30 AM 9:09 PM
Waning Gibbous, 92% visible
Pressure 29.86 in
Visibility 10.0 miles
Clouds Clear
Dew Point Not available.
Humidity Not available.
Rainfall in
Snow Depth Not available.
UV 11 out of 12
Pollen 6.20 out of 12
Air Quality Not available.
Flu Activity Not available.
METAR KMYL 021951Z AUTO 00000KT 10SM CLR 33/M01 A3004 RMK AO2 SLP110 T03281006

More Conditions Fewer Conditions

Pressure 29.86 in
Visibility 10.0 miles
Clouds Clear
Dew Point Not available.
Humidity Not available.
Rainfall in
Snow Depth Not available.
UV 11 out of 12
Pollen 6.20 out of 12
Air Quality Not available.
Flu Activity Not available.
METAR KMYL 021951Z AUTO 00000KT 10SM CLR 33/M01 A3004 RMK AO2 SLP110 T03281006

More Conditions Fewer Conditions

10-Day Weather Forecast

×

Almanac

Astronomy

Aug. 02, 2015 Rise Set
Actual Time
Civil Twilight
Nautical Twilight
Astronomical Twilight
Moon
Length of Visible Light
Length of Day
Tomorrow will be .
, % of the Moon is Illuminated

Today's Extremes

State Highs State Lows

Community

WunderPhotos

Upload Photos

1,843,364 photos uploaded!

WunderBlogs® & News

Nearby

Air Quality

  Air Quality AQ Index Pollutant
Not available.

Snow Depth

Station Depth Elevation

Earthquake Activity

City Distance Mag. Time & Date
Minimum magnitude displayed is 2.5.

Coastal Water Temperatures

Place Temperature

Stations

Nearby Weather Stations

Station Location Temp. Windchill Dew Point Humidity Wind Precip. Elev Updated Type
                   
Fire Weather Advisory
Statement as of 1:22 PM PDT on August 02, 2015

... The Fire Weather Watch for lightning has been cancelled for
the northern Boise blm... western Payette National Forest... and
Baker Valley - which are fire weather zones 400 401 and 646...

The National Weather Service in Boise has cancelled the Fire
Weather Watch for the northern Boise blm... western Payette
National Forest... and Baker Valley. Showers and thunderstorms
are still anticipated... but will be isolated in coverage.